Time;durP1;ratioP1;P1;durP2;ratioP2;P2;SDS_P1;SDS_P2;PMS_P1;PMS_P2;Temp;Humidity;BMP_temperature;BMP_pressure;BME280_temperature;BME280_humidity;BME280_pressure;Samples;Min_cycle;Max_cycle;Signal;HPM_P1;HPM_P2
2022/07/27 00:01:37;;;;;;;;;;;;;;;14.88;79.06;98638.98;1341555;85;21080;-73
2022/07/27 00:03:39;;;;;;;24.57;15.28;;;;;;;14.88;79.16;98638.98;1339237;86;67383;-71
2022/07/27 00:05:40;;;;;;;16.37;14.70;;;;;;;14.88;79.13;98645.61;1369707;84;21073;-72
2022/07/27 00:07:41;;;;;;;34.63;15.88;;;;;;;14.85;79.25;98635.72;1369106;84;21054;-72
2022/07/27 00:09:42;;;;;;;;;;;;;;;14.85;79.25;98635.72;1368304;83;81739;-72
2022/07/27 00:11:43;;;;;;;22.32;14.75;;;;;;;14.83;79.14;98637.61;1339988;86;20169;-72
2022/07/27 00:13:44;;;;;;;;;;;;;;;14.79;79.14;98636.52;1319319;86;81234;-72
2022/07/27 00:15:45;;;;;;;105.65;16.25;;;;;;;14.77;79.20;98642.88;1336256;85;20500;-72
2022/07/27 00:17:47;;;;;;;35.95;15.63;;;;;;;14.74;79.15;98637.31;1307957;87;21072;-73
2022/07/27 00:19:49;;;;;;;67.75;16.70;;;;;;;14.71;79.13;98629.58;1305073;87;81195;-71
2022/07/27 00:21:50;;;;;;;22.82;15.30;;;;;;;14.70;79.14;98629.69;1309454;88;21069;-72
2022/07/27 00:23:53;;;;;;;22.87;16.17;;;;;;;14.68;79.12;98635.11;1306669;87;82368;-72
2022/07/27 00:25:54;;;;;;;23.50;14.90;;;;;;;14.67;79.18;98630.75;1308449;88;21061;-72
2022/07/27 00:27:58;;;;;;;;;;;;;;;14.66;79.18;98633.02;1312330;87;21089;-74
2022/07/27 00:29:59;;;;;;;25.25;14.83;;;;;;;14.64;79.26;98632.30;1321899;86;68404;-71
2022/07/27 00:31:59;;;;;;;;;;;;;;;14.61;79.20;98635.98;1312008;88;21101;-71
2022/07/27 00:34:00;;;;;;;36.17;16.40;;;;;;;14.59;79.25;98636.58;1336165;85;67777;-72
2022/07/27 00:36:02;;;;;;;25.05;16.25;;;;;;;14.59;79.30;98630.41;1337006;85;21032;-72
2022/07/27 00:38:03;;;;;;;24.12;14.95;;;;;;;14.59;79.27;98630.41;1336443;86;21631;-71
2022/07/27 00:40:06;;;;;;;19.48;15.20;;;;;;;14.58;79.24;98630.90;1336779;85;83178;-72
2022/07/27 00:42:07;;;;;;;27.48;15.32;;;;;;;14.59;79.29;98637.04;1337119;85;21101;-72
2022/07/27 00:44:09;;;;;;;;;;;;;;;14.61;79.34;98647.08;1337332;85;81151;-72
2022/07/27 00:46:10;;;;;;;76.97;17.40;;;;;;;14.59;79.36;98639.69;1336266;85;20150;-73
2022/07/27 00:48:11;;;;;;;181.32;20.10;;;;;;;14.58;79.38;98644.62;1309603;88;21562;-72
2022/07/27 00:50:12;;;;;;;159.80;18.25;;;;;;;14.57;79.35;98637.64;1305071;88;82152;-72
2022/07/27 00:52:13;;;;;;;;;;;;;;;14.56;79.39;98641.24;1313222;87;21065;-72
2022/07/27 00:54:16;;;;;;;147.05;17.90;;;;;;;14.56;79.48;98639.42;1336100;86;68650;-73
2022/07/27 00:56:17;;;;;;;254.23;19.95;;;;;;;14.55;79.46;98637.75;1337669;85;21359;-72
2022/07/27 00:58:18;;;;;;;174.90;17.57;;;;;;;14.55;79.44;98638.21;1336577;85;21075;-71
2022/07/27 01:00:21;;;;;;;181.22;18.45;;;;;;;14.52;79.45;98637.94;1334506;85;81955;-72
2022/07/27 01:02:22;;;;;;;218.67;17.57;;;;;;;14.51;79.45;98637.59;1335040;86;21066;-72
2022/07/27 01:04:23;;;;;;;167.70;15.40;;;;;;;14.50;79.44;98636.37;1336201;85;81401;-72
2022/07/27 01:06:25;;;;;;;204.55;15.70;;;;;;;14.48;79.48;98632.02;1337020;86;21044;-73
2022/07/27 01:08:26;;;;;;;191.07;16.90;;;;;;;14.47;79.50;98634.30;1335438;86;21012;-72
2022/07/27 01:10:27;;;;;;;177.07;15.85;;;;;;;14.45;79.47;98636.22;1336802;85;81973;-72
2022/07/27 01:12:31;;;;;;;161.85;15.13;;;;;;;14.43;79.49;98642.09;1338844;85;21068;-71
2022/07/27 01:14:32;;;;;;;111.32;15.23;;;;;;;14.43;79.49;98642.09;1330574;86;82109;-71
2022/07/27 01:16:33;;;;;;;159.40;14.95;;;;;;;14.42;79.51;98648.34;1365316;83;21078;-72
2022/07/27 01:18:35;;;;;;;;;;;;;;;14.40;79.48;98648.95;1364559;83;21022;-72
2022/07/27 01:20:36;;;;;;;69.40;15.08;;;;;;;14.39;79.57;98647.23;1332179;86;68217;-72
2022/07/27 01:22:37;;;;;;;104.35;17.62;;;;;;;14.36;79.54;98642.61;1361050;83;21053;-72
2022/07/27 01:24:38;;;;;;;90.12;15.60;;;;;;;14.36;79.58;98644.81;1359552;85;82671;-72
2022/07/27 01:26:39;;;;;;;37.40;15.03;;;;;;;14.35;79.58;98655.03;1362788;83;21102;-71
2022/07/27 01:28:44;;;;;;;67.90;14.78;;;;;;;14.34;79.60;98646.70;1360456;85;81273;-71
2022/07/27 01:30:45;;;;;;;123.80;15.75;;;;;;;14.32;79.58;98651.28;1363169;83;21261;-72
2022/07/27 01:32:46;;;;;;;121.77;15.72;;;;;;;14.30;79.59;98650.52;1362827;83;21907;-72
2022/07/27 01:34:47;;;;;;;129.90;14.40;;;;;;;14.29;79.56;98652.82;1362043;83;81463;-72
2022/07/27 01:36:50;;;;;;;139.22;14.73;;;;;;;14.25;79.57;98649.52;1363672;83;21668;-72
2022/07/27 01:38:51;;;;;;;139.88;14.95;;;;;;;14.22;79.57;98649.73;1361439;83;82865;-71
2022/07/27 01:40:54;;;;;;;107.52;16.80;;;;;;;14.19;79.58;98642.46;1362218;84;21074;-72
2022/07/27 01:42:55;;;;;;;115.80;14.07;;;;;;;14.17;79.60;98640.41;1365331;83;21026;-72
2022/07/27 01:44:56;;;;;;;106.07;15.00;;;;;;;14.13;79.62;98639.27;1360135;83;81164;-72
2022/07/27 01:46:57;;;;;;;100.47;14.15;;;;;;;14.10;79.60;98634.19;1360330;85;20997;-72
2022/07/27 01:48:57;;;;;;;;;;;;;;;14.06;79.63;98637.99;1362866;83;82210;-72
2022/07/27 01:50:58;;;;;;;114.72;14.15;;;;;;;14.03;79.66;98636.05;1335012;85;20182;-72
2022/07/27 01:53:01;;;;;;;138.68;15.25;;;;;;;14.00;79.70;98642.40;1361598;85;21703;-72
2022/07/27 01:55:02;;;;;;;137.35;15.95;;;;;;;13.96;79.69;98640.91;1359510;84;81849;-72
2022/07/27 01:57:04;;;;;;;108.90;13.68;;;;;;;13.93;79.70;98634.50;1360235;83;21089;-72
2022/07/27 01:59:04;;;;;;;;;;;;;;;13.92;79.74;98636.77;1362529;83;82072;-72
2022/07/27 02:01:06;;;;;;;126.60;15.40;;;;;;;13.87;79.79;98633.09;1335825;85;20216;-71
2022/07/27 02:03:08;;;;;;;55.52;15.15;;;;;;;13.83;79.79;98629.44;1362411;85;21010;-72
2022/07/27 02:05:12;;;;;;;72.65;13.10;;;;;;;13.80;79.77;98627.83;1361300;83;81825;-71
2022/07/27 02:07:13;;;;;;;65.78;14.23;;;;;;;13.77;79.82;98626.72;1360832;84;21673;-72
2022/07/27 02:09:14;;;;;;;46.65;15.08;;;;;;;13.75;79.80;98629.48;1333947;85;81018;-72
2022/07/27 02:13:35;;;;;;;54.73;13.55;;;;;;;13.67;79.92;98631.79;1362474;84;20176;-72
2022/07/27 02:15:36;;;;;;;63.15;13.80;;;;;;;13.64;79.92;98643.91;1364000;84;81732;-72
2022/07/27 02:17:38;;;;;;;;;;;;;;;13.61;79.92;98637.50;1371211;84;21658;-71
2022/07/27 02:19:39;;;;;;;38.02;14.30;;;;;;;13.58;79.98;98635.03;1366770;83;67183;-72
2022/07/27 02:21:40;;;;;;;34.25;16.27;;;;;;;13.53;80.01;98634.52;1366919;83;21036;-72
2022/07/27 02:23:43;;;;;;;33.23;15.95;;;;;;;13.52;80.03;98635.45;1364317;83;82683;-72
2022/07/27 02:25:44;;;;;;;26.20;15.80;;;;;;;13.50;80.07;98634.23;1367744;83;21064;-72
2022/07/27 02:27:45;;;;;;;;;;;;;;;13.49;80.11;98631.70;1370909;83;21531;-73
2022/07/27 02:29:46;;;;;;;22.73;16.23;;;;;;;13.49;80.21;98633.02;1364676;84;67396;-72
2022/07/27 02:31:47;;;;;;;24.25;16.17;;;;;;;13.47;80.19;98639.71;1337335;85;21070;-72
2022/07/27 02:33:48;;;;;;;19.92;16.35;;;;;;;13.48;80.19;98641.91;1364625;83;81875;-72
2022/07/27 02:35:49;;;;;;;23.20;17.50;;;;;;;13.49;80.22;98644.45;1365329;85;21528;-72
2022/07/27 02:37:50;;;;;;;22.25;16.93;;;;;;;13.51;80.26;98643.02;1366473;83;21040;-72
2022/07/27 02:39:51;;;;;;;26.55;17.35;;;;;;;13.54;80.28;98644.13;1363864;83;80985;-72
2022/07/27 02:41:52;;;;;;;21.50;17.40;;;;;;;13.56;80.31;98644.41;1367953;83;21940;-72
2022/07/27 02:43:53;;;;;;;19.73;16.80;;;;;;;13.59;80.30;98644.69;1364730;83;81129;-72
2022/07/27 02:45:54;;;;;;;;;;;;;;;13.59;80.30;98643.36;1370127;83;21726;-72
2022/07/27 02:47:55;;;;;;;28.38;16.97;;;;;;;13.63;80.37;98650.16;1334376;85;20223;-72
2022/07/27 02:49:56;;;;;;;18.92;15.75;;;;;;;13.64;80.38;98654.51;1315924;87;81753;-72
2022/07/27 02:51:57;;;;;;;30.68;18.73;;;;;;;13.65;80.37;98654.86;1299299;88;21181;-72
2022/07/27 02:53:59;;;;;;;19.98;15.98;;;;;;;13.67;80.38;98654.30;1295685;89;82554;-72
2022/07/27 02:56:00;;;;;;;23.20;16.40;;;;;;;13.68;80.37;98657.78;1312907;87;21083;-72
2022/07/27 02:58:01;;;;;;;;;;;;;;;13.70;80.37;98658.06;1370653;83;21032;-73
2022/07/27 03:00:04;;;;;;;23.38;16.65;;;;;;;13.71;80.44;98656.28;1367403;84;68225;-72
2022/07/27 03:02:05;;;;;;;24.95;16.90;;;;;;;13.71;80.43;98658.93;1369675;83;21024;-72
2022/07/27 03:04:06;;;;;;;;;;;;;;;13.72;80.41;98654.85;1367191;83;81868;-72
2022/07/27 03:06:07;;;;;;;26.50;16.43;;;;;;;13.71;80.43;98656.28;1367409;83;20443;-72
2022/07/27 03:08:09;;;;;;;25.90;17.62;;;;;;;13.70;80.41;98663.36;1366029;83;21004;-72
2022/07/27 03:10:10;;;;;;;28.47;18.12;;;;;;;13.70;80.39;98672.63;1364371;83;81839;-72
2022/07/27 03:12:11;;;;;;;27.93;18.05;;;;;;;13.70;80.38;98669.98;1367750;83;21001;-72
2022/07/27 03:14:11;;;;;;;;;;;;;;;13.68;80.40;98675.87;1368208;83;81220;-73
2022/07/27 03:16:12;;;;;;;32.93;18.40;;;;;;;13.69;80.51;98670.92;1370112;83;20157;-72
2022/07/27 03:18:13;;;;;;;;;;;;;;;13.69;80.54;98673.57;1370558;83;21113;-73
2022/07/27 03:20:14;;;;;;;37.60;18.60;;;;;;;13.72;80.62;98680.02;1338909;85;67680;-72
2022/07/27 03:22:15;;;;;;;32.88;18.23;;;;;;;13.73;80.58;98680.36;1319811;86;21139;-72
2022/07/27 03:24:16;;;;;;;30.00;18.30;;;;;;;13.73;80.52;98685.66;1315261;88;81356;-72
2022/07/27 03:26:18;;;;;;;28.17;18.48;;;;;;;13.71;80.53;98673.50;1316564;86;21609;-72
2022/07/27 03:28:19;;;;;;;24.67;18.07;;;;;;;13.73;80.54;98684.34;1319075;86;21038;-72
2022/07/27 03:30:20;;;;;;;26.60;17.20;;;;;;;13.71;80.53;98676.98;1338538;85;82297;-72
2022/07/27 03:32:20;;;;;;;;;;;;;;;13.73;80.50;98687.47;1333188;87;21072;-72
2022/07/27 03:34:22;;;;;;;25.48;18.42;;;;;;;13.73;80.58;98690.96;1328977;86;68088;-72
2022/07/27 03:36:24;;;;;;;25.55;19.27;;;;;;;13.73;80.56;98685.66;1329984;87;21172;-72
2022/07/27 03:38:25;;;;;;;26.55;20.08;;;;;;;13.73;80.55;98680.36;1330116;85;21037;-72
2022/07/27 03:40:28;;;;;;;31.40;20.10;;;;;;;13.75;80.55;98681.61;1328431;86;81259;-71
2022/07/27 03:42:29;;;;;;;31.50;20.25;;;;;;;13.76;80.59;98677.54;1328979;87;21045;-72
2022/07/27 03:44:29;;;;;;;32.65;20.50;;;;;;;13.78;80.59;98682.24;1327293;86;81052;-72
2022/07/27 03:46:30;;;;;;;;;;;;;;;13.79;80.54;98689.25;1334416;85;21041;-72
2022/07/27 03:48:31;;;;;;;25.47;18.33;;;;;;;13.82;80.63;98689.98;1329503;86;20163;-72
2022/07/27 03:50:32;;;;;;;21.70;17.02;;;;;;;13.82;80.62;98685.55;1330032;87;81658;-72
2022/07/27 03:52:33;;;;;;;24.20;17.60;;;;;;;13.85;80.62;98684.02;1331295;85;21047;-72
2022/07/27 03:54:34;;;;;;;22.67;17.65;;;;;;;13.85;80.58;98680.05;1329405;85;82040;-72
2022/07/27 03:56:35;;;;;;;;;;;;;;;13.87;80.56;98679.94;1335201;87;21643;-72
2022/07/27 03:58:36;;;;;;;20.72;16.32;;;;;;;13.87;80.56;98681.26;1333057;86;20152;-72
2022/07/27 04:00:37;;;;;;;26.05;16.07;;;;;;;13.87;80.57;98687.88;1328982;86;81020;-72
2022/07/27 04:02:38;;;;;;;;;;;;;;;13.87;80.57;98690.05;1332842;87;21096;-72
2022/07/27 04:04:39;;;;;;;20.60;16.37;;;;;;;13.89;80.64;98692.63;1328853;87;67303;-72
2022/07/27 04:06:39;;;;;;;26.15;17.48;;;;;;;13.90;80.61;98695.63;1330335;85;21048;-72
2022/07/27 04:08:40;;;;;;;25.45;16.20;;;;;;;13.92;80.61;98694.57;1328480;86;82254;-72
2022/07/27 04:10:41;;;;;;;25.88;16.67;;;;;;;13.94;80.62;98695.79;1332038;86;21078;-73
2022/07/27 04:12:42;;;;;;;28.30;17.95;;;;;;;13.96;80.62;98697.87;1333254;85;21477;-72
2022/07/27 04:14:44;;;;;;;28.30;16.67;;;;;;;13.99;80.61;98693.69;1326694;87;81005;-73
2022/07/27 04:16:46;;;;;;;32.98;17.07;;;;;;;14.01;80.64;98695.78;1312642;87;21072;-72
2022/07/27 04:18:47;;;;;;;27.13;17.45;;;;;;;14.04;80.66;98698.67;1312003;87;82343;-72
2022/07/27 04:20:47;;;;;;;;;;;;;;;14.06;80.66;98702.08;1310690;88;21032;-72
2022/07/27 04:22:48;;;;;;;25.45;16.27;;;;;;;14.08;80.71;98698.38;1329494;85;20189;-72
2022/07/27 04:24:49;;;;;;;;;;;;;;;14.12;80.73;98705.63;1310367;87;81919;-72
2022/07/27 04:26:50;;;;;;;21.00;15.55;;;;;;;14.16;80.82;98698.34;1330856;87;21076;-72
2022/07/27 04:28:51;;;;;;;22.52;18.37;;;;;;;14.19;80.79;98696.80;1309536;87;82021;-72
2022/07/27 04:30:52;;;;;;;23.50;17.12;;;;;;;14.22;80.76;98693.93;1310356;87;21078;-73
2022/07/27 04:32:53;;;;;;;26.70;17.55;;;;;;;14.24;80.72;98691.55;1306510;87;21008;-72
2022/07/27 04:34:54;;;;;;;24.12;18.40;;;;;;;14.27;80.73;98695.80;1302749;87;82075;-72
2022/07/27 04:36:55;;;;;;;26.10;18.50;;;;;;;14.29;80.68;98699.21;1308560;88;21090;-72
2022/07/27 04:38:56;;;;;;;33.02;20.25;;;;;;;14.31;80.69;98698.61;1315154;88;81316;-72
2022/07/27 04:40:57;;;;;;;;;;;;;;;14.34;80.69;98702.86;1306421;87;21068;-72
2022/07/27 04:43:00;;;;;;;24.18;17.10;;;;;;;14.36;80.72;98704.46;1330596;85;20171;-72
2022/07/27 04:45:02;;;;;;;28.87;18.00;;;;;;;14.37;80.72;98703.97;1327498;87;82312;-72
2022/07/27 04:47:03;;;;;;;27.58;18.25;;;;;;;14.40;80.76;98703.30;1327675;87;21663;-72
2022/07/27 04:49:05;;;;;;;;;;;;;;;14.44;80.75;98706.11;1330235;86;81164;-71
2022/07/27 04:51:06;;;;;;;25.17;18.50;;;;;;;14.50;80.81;98705.33;1329093;85;20136;-71
2022/07/27 04:53:09;;;;;;;24.95;17.40;;;;;;;14.52;80.82;98704.24;1332400;86;21512;-71
2022/07/27 04:55:10;;;;;;;30.62;18.92;;;;;;;14.55;80.79;98708.03;1327424;86;82432;-71
2022/07/27 04:57:11;;;;;;;25.97;18.57;;;;;;;14.57;80.72;98714.55;1329777;87;21119;-71
2022/07/27 04:59:12;;;;;;;29.25;18.02;;;;;;;14.60;80.74;98715.66;1329139;87;81209;-71
2022/07/27 05:01:13;;;;;;;22.30;17.75;;;;;;;14.62;80.72;98709.33;1330826;85;21036;-71
2022/07/27 05:03:14;;;;;;;;;;;;;;;14.66;80.71;98706.46;1334068;87;21505;-71
2022/07/27 05:05:15;;;;;;;34.85;19.77;;;;;;;14.68;80.79;98706.73;1327734;86;67166;-71
2022/07/27 05:07:15;;;;;;;;;;;;;;;14.71;80.77;98718.94;1332102;87;22081;-71
2022/07/27 05:09:16;;;;;;;25.90;20.20;;;;;;;14.73;80.82;98715.23;1330199;85;67104;-71
2022/07/27 05:11:17;;;;;;;31.20;19.52;;;;;;;14.77;80.80;98714.05;1329134;85;21568;-71
2022/07/27 05:13:18;;;;;;;;;;;;;;;14.83;80.80;98710.58;1332797;87;21136;-71
2022/07/27 05:15:19;;;;;;;31.00;19.62;;;;;;;14.86;80.80;98711.72;1332958;87;67252;-71
2022/07/27 05:17:20;;;;;;;29.57;18.90;;;;;;;14.86;80.76;98709.90;1328878;85;21617;-71
2022/07/27 05:19:21;;;;;;;;;;;;;;;14.90;80.75;98712.71;1332556;85;82008;-71
2022/07/27 05:21:22;;;;;;;33.55;18.05;;;;;;;14.94;80.78;98710.21;1331295;86;20345;-71
2022/07/27 05:23:22;;;;;;;;;;;;;;;14.76;80.69;98676.99;1334929;87;21547;-71
2022/07/27 05:25:24;;;;;;;23.23;17.13;;;;;;;14.98;80.77;98710.83;1328481;85;68212;-71
2022/07/27 05:27:25;;;;;;;21.90;17.25;;;;;;;15.02;80.79;98720.27;1332179;87;22156;-72
2022/07/27 05:29:26;;;;;;;;;;;;;;;15.07;80.80;98727.44;1331909;87;82035;-71
2022/07/27 05:31:27;;;;;;;25.68;17.45;;;;;;;15.11;80.83;98727.59;1332558;86;20147;-71
2022/07/27 05:33:27;;;;;;;;;;;;;;;15.13;80.79;98733.65;1334227;85;21138;-71
2022/07/27 05:35:28;;;;;;;28.70;16.52;;;;;;;15.19;80.86;98731.03;1329762;87;68071;-71
2022/07/27 05:37:29;;;;;;;;;;;;;;;15.25;80.86;98731.91;1335635;85;21103;-71
2022/07/27 05:39:30;;;;;;;21.87;17.33;;;;;;;15.31;80.86;98733.27;1329455;85;67220;-71
2022/07/27 05:41:31;;;;;;;;;;;;;;;15.35;80.86;98731.26;1333699;87;21536;-71
2022/07/27 05:43:32;;;;;;;29.12;17.32;;;;;;;15.42;80.91;98729.36;1332249;86;20221;-71
2022/07/27 05:45:32;;;;;;;;;;;;;;;15.48;80.90;98727.61;1332427;86;81422;-72
2022/07/27 05:47:34;;;;;;;28.12;17.57;;;;;;;15.54;80.86;98730.30;1332631;87;20184;-72
2022/07/27 05:49:35;;;;;;;39.18;17.02;;;;;;;15.59;80.76;98737.91;1329824;85;81063;-72
2022/07/27 05:51:37;;;;;;;33.30;17.37;;;;;;;15.64;80.75;98741.09;1334625;86;21009;-71
2022/07/27 05:53:38;;;;;;;37.03;18.57;;;;;;;15.70;80.68;98740.66;1328672;87;21044;-71
2022/07/27 05:55:39;;;;;;;;;;;;;;;15.77;80.68;98746.34;1332560;86;81716;-72
2022/07/27 05:57:40;;;;;;;30.37;19.62;;;;;;;15.82;80.68;98741.13;1330287;86;20196;-72
2022/07/27 05:59:40;;;;;;;;;;;;;;;15.87;80.70;98745.22;1329069;86;82068;-72
2022/07/27 06:01:41;;;;;;;29.12;16.45;;;;;;;15.94;80.75;98747.81;1333110;85;20220;-72
2022/07/27 06:03:42;;;;;;;25.25;17.35;;;;;;;15.99;80.66;98752.29;1326281;85;82051;-72
2022/07/27 06:05:43;;;;;;;;;;;;;;;16.06;80.65;98745.58;1331268;87;21081;-72
2022/07/27 06:08:07;;;;;;;27.52;18.45;;;;;;;16.12;80.69;98733.14;1332382;87;20142;-71
2022/07/27 06:10:06;;;;;;;42.67;18.30;;;;;;;16.21;80.68;98745.38;1329990;87;81913;-72
2022/07/27 06:12:08;;;;;;;29.30;17.17;;;;;;;16.28;80.64;98746.14;1332001;86;21060;-72
2022/07/27 06:14:09;;;;;;;29.72;18.00;;;;;;;16.34;80.57;98754.97;1327723;87;81217;-72
2022/07/27 06:16:10;;;;;;;33.55;17.67;;;;;;;16.41;80.57;98763.34;1331547;85;21072;-72
2022/07/27 06:18:16;;;;;;;;;;;;;;;16.48;80.51;98768.55;1330951;87;21334;-72
2022/07/27 06:20:14;;;;;;;28.02;18.67;;;;;;;16.53;80.52;98763.37;1326463;85;68087;-72
2022/07/27 06:22:17;;;;;;;30.15;18.55;;;;;;;16.58;80.43;98760.72;1310213;87;21564;-72
2022/07/27 06:24:18;;;;;;;33.95;18.48;;;;;;;16.64;80.40;98758.94;1326033;85;81903;-72
2022/07/27 06:26:19;;;;;;;;;;;;;;;16.69;80.31;98766.05;1334626;85;21087;-73
2022/07/27 06:28:20;;;;;;;26.62;18.80;;;;;;;16.74;80.32;98760.86;1333197;85;20154;-73
2022/07/27 06:30:21;;;;;;;26.52;19.05;;;;;;;16.77;80.24;98757.49;1328536;87;82085;-72
2022/07/27 06:32:22;;;;;;;43.15;19.23;;;;;;;16.82;80.22;98756.66;1333740;87;21036;-72
2022/07/27 06:34:23;;;;;;;;;;;;;;;16.87;80.19;98764.28;1331792;85;82515;-71
2022/07/27 06:36:24;;;;;;;30.23;18.80;;;;;;;16.92;80.18;98759.95;1331947;85;20152;-73
2022/07/27 06:38:26;;;;;;;31.90;17.98;;;;;;;16.92;80.01;98759.48;1329333;85;21648;-74
2022/07/27 06:40:27;;;;;;;40.35;17.48;;;;;;;16.93;79.98;98756.33;1330277;87;81943;-73
2022/07/27 06:42:28;;;;;;;31.85;18.77;;;;;;;16.95;79.96;98757.91;1330898;85;20989;-73
2022/07/27 06:44:29;;;;;;;;;;;;;;;16.98;79.90;98755.48;1332771;87;81236;-72
2022/07/27 06:46:30;;;;;;;28.12;17.57;;;;;;;17.00;79.91;98754.41;1331452;85;20167;-73
2022/07/27 06:48:31;;;;;;;;;;;;;;;17.01;79.89;98756.08;1335890;85;21024;-73
2022/07/27 06:50:32;;;;;;;28.42;17.75;;;;;;;17.08;79.98;98761.77;1332334;85;67106;-72
2022/07/27 06:52:32;;;;;;;;;;;;;;;17.12;79.89;98759.73;1336940;86;21100;-72
2022/07/27 06:54:33;;;;;;;32.45;18.92;;;;;;;17.22;80.00;98761.17;1332860;86;68428;-73
2022/07/27 06:56:34;;;;;;;;;;;;;;;17.30;79.91;98764.08;1336524;87;21029;-72
2022/07/27 06:58:36;;;;;;;29.87;17.42;;;;;;;17.42;79.96;98765.77;1332971;85;20117;-72
2022/07/27 07:00:38;;;;;;;24.50;18.60;;;;;;;17.50;79.86;98763.34;1331431;87;82002;-72
2022/07/27 07:02:58;;;;;;;27.73;19.02;;;;;;;17.61;79.81;98764.28;1332387;86;21044;-72
2022/07/27 07:04:59;;;;;;;28.30;17.42;;;;;;;17.52;79.68;98731.23;1332212;85;81057;-73
2022/07/27 07:07:00;;;;;;;29.10;17.73;;;;;;;17.70;79.47;98758.21;1335120;85;21076;-72
2022/07/27 07:09:01;;;;;;;31.73;16.42;;;;;;;17.73;79.47;98768.62;1331475;87;81106;-72
2022/07/27 07:11:02;;;;;;;24.30;17.73;;;;;;;17.79;79.44;98773.47;1332308;87;21056;-72
2022/07/27 07:13:05;;;;;;;33.63;19.65;;;;;;;17.86;79.45;98773.78;1334908;85;22375;-73
2022/07/27 07:15:07;;;;;;;25.97;19.57;;;;;;;17.98;79.44;98783.98;1329577;87;81099;-72
2022/07/27 07:17:08;;;;;;;33.85;18.98;;;;;;;18.04;79.42;98783.45;1337131;85;21074;-73
2022/07/27 07:19:09;;;;;;;27.00;17.85;;;;;;;18.15;79.41;98771.91;1341676;85;81776;-73
2022/07/27 07:21:11;;;;;;;33.73;20.85;;;;;;;18.24;79.28;98776.48;1343128;86;21635;-72
2022/07/27 07:23:12;;;;;;;41.98;19.90;;;;;;;18.28;79.15;98770.42;1341668;85;21079;-72
2022/07/27 07:25:13;;;;;;;31.05;17.67;;;;;;;18.31;79.06;98776.83;1339055;85;81011;-73
2022/07/27 07:27:13;;;;;;;26.82;15.83;;;;;;;18.36;79.03;98779.97;1340218;86;21088;-73
2022/07/27 07:29:15;;;;;;;24.67;15.68;;;;;;;18.38;78.77;98778.00;1338850;85;81968;-73
2022/07/27 07:31:18;;;;;;;26.80;16.20;;;;;;;18.41;78.80;98775.06;1341194;86;21079;-73
2022/07/27 07:33:19;;;;;;;21.12;16.42;;;;;;;18.45;78.74;98775.67;1340632;86;21143;-73
2022/07/27 07:35:20;;;;;;;28.73;16.55;;;;;;;18.53;78.81;98769.20;1337805;86;82460;-73
2022/07/27 07:37:21;;;;;;;27.52;15.63;;;;;;;18.64;78.76;98769.13;1341313;86;21658;-73
2022/07/27 07:39:22;;;;;;;21.27;14.25;;;;;;;18.71;78.60;98774.80;1339878;86;81882;-73
2022/07/27 07:41:22;;;;;;;;;;;;;;;18.78;78.52;98778.62;1348012;85;21085;-72
2022/07/27 07:43:23;;;;;;;18.70;15.38;;;;;;;18.82;78.33;98785.39;1344275;85;20154;-72
2022/07/27 07:45:26;;;;;;;24.57;16.85;;;;;;;18.84;78.36;98788.80;1339792;86;81172;-72
2022/07/27 07:47:27;;;;;;;27.32;16.80;;;;;;;18.86;78.27;98790.83;1342186;85;21080;-72
2022/07/27 07:49:28;;;;;;;21.40;16.05;;;;;;;18.91;78.26;98793.63;1338970;85;81863;-73
2022/07/27 07:51:30;;;;;;;26.95;16.00;;;;;;;18.93;78.14;98797.00;1342479;86;21041;-71
2022/07/27 07:53:32;;;;;;;30.37;15.08;;;;;;;18.94;78.11;98798.23;1345523;86;21346;-71
2022/07/27 07:55:33;;;;;;;36.28;15.25;;;;;;;18.97;78.11;98798.43;1341445;85;80983;-73
2022/07/27 07:57:34;;;;;;;;;;;;;;;19.02;78.15;98800.22;1346391;85;21070;-73
2022/07/27 07:59:35;;;;;;;23.80;13.72;;;;;;;19.10;78.12;98805.75;1339608;86;68483;-73
2022/07/27 08:01:35;;;;;;;;;;;;;;;19.13;77.86;98808.16;1345976;85;21068;-73
2022/07/27 08:03:37;;;;;;;27.17;13.30;;;;;;;19.13;77.83;98800.14;1340730;85;20173;-73
2022/07/27 08:05:37;;;;;;;20.15;14.03;;;;;;;19.21;77.93;98804.33;1339157;85;81550;-73
2022/07/27 08:07:39;;;;;;;21.85;13.88;;;;;;;19.32;77.90;98810.08;1341533;85;21056;-74
2022/07/27 08:09:40;;;;;;;30.72;14.43;;;;;;;19.38;77.68;98801.54;1340380;85;81010;-74
2022/07/27 08:11:41;;;;;;;23.20;13.90;;;;;;;19.39;77.54;98801.04;1344158;85;21069;-73
2022/07/27 08:13:42;;;;;;;15.78;12.60;;;;;;;19.45;77.45;98809.84;1341901;86;81946;-73
2022/07/27 08:15:43;;;;;;;22.15;13.40;;;;;;;19.45;77.38;98798.31;1343468;86;20993;-73
2022/07/27 08:17:44;;;;;;;24.05;15.00;;;;;;;19.45;77.32;98799.15;1342771;85;21155;-73
2022/07/27 08:19:46;;;;;;;30.17;17.10;;;;;;;19.50;77.35;98793.41;1370265;83;81902;-73
2022/07/27 08:21:46;;;;;;;23.32;16.45;;;;;;;19.56;77.31;98797.73;1371931;83;21053;-73
2022/07/27 08:23:47;;;;;;;33.98;16.27;;;;;;;19.62;77.26;98805.70;1371949;83;81258;-74
2022/07/27 08:25:48;;;;;;;29.80;16.67;;;;;;;19.69;77.17;98808.68;1366358;83;21368;-73
2022/07/27 08:27:49;;;;;;;23.25;15.88;;;;;;;19.75;77.19;98805.45;1367585;84;21093;-73
2022/07/27 08:29:50;;;;;;;23.75;15.48;;;;;;;19.82;77.10;98807.12;1365874;83;81272;-73
2022/07/27 08:31:51;;;;;;;28.27;15.25;;;;;;;19.87;77.04;98808.39;1368089;83;21057;-74
2022/07/27 08:33:52;;;;;;;20.45;14.55;;;;;;;19.92;76.92;98802.62;1366966;83;82536;-73
2022/07/27 08:35:53;;;;;;;31.87;15.13;;;;;;;19.97;76.80;98806.23;1366441;83;21042;-74
2022/07/27 08:37:55;;;;;;;21.07;13.10;;;;;;;20.01;76.85;98805.81;1367409;83;21834;-74
2022/07/27 08:39:56;;;;;;;17.27;12.15;;;;;;;20.11;76.80;98807.16;1366880;83;81121;-74
2022/07/27 08:42:00;;;;;;;21.40;12.80;;;;;;;20.17;76.63;98799.93;1366665;83;21038;-73
2022/07/27 08:44:01;;;;;;;19.48;10.72;;;;;;;20.25;76.55;98797.37;1364160;83;82381;-74
2022/07/27 08:46:03;;;;;;;19.10;14.23;;;;;;;20.35;76.42;98795.20;1368770;83;21081;-74
2022/07/27 08:48:05;;;;;;;20.12;13.15;;;;;;;20.48;76.31;98793.56;1370345;84;21054;-74
2022/07/27 08:50:23;;;;;;;21.50;13.85;;;;;;;20.60;76.23;98787.08;1366797;83;82020;-73
2022/07/27 08:52:24;;;;;;;26.85;14.15;;;;;;;20.78;76.27;98785.05;1371231;83;21128;-73
2022/07/27 08:54:25;;;;;;;24.85;11.73;;;;;;;20.99;76.14;98786.19;1368097;84;81083;-74
2022/07/27 08:56:26;;;;;;;13.83;11.38;;;;;;;21.17;76.00;98798.33;1371186;83;21041;-74
2022/07/27 08:58:27;;;;;;;15.05;10.70;;;;;;;21.21;75.47;98792.55;1370660;83;21046;-73
2022/07/27 09:00:31;;;;;;;19.42;10.00;;;;;;;21.19;75.36;98793.17;1368287;84;81468;-73
2022/07/27 09:02:33;;;;;;;19.15;10.00;;;;;;;21.21;75.43;98795.23;1370907;83;21066;-73
2022/07/27 09:04:35;;;;;;;12.20;10.20;;;;;;;21.26;75.41;98794.27;1371445;83;81148;-73
2022/07/27 09:06:47;;;;;;;14.38;8.98;;;;;;;21.35;75.37;98791.23;1369805;84;21641;-73
2022/07/27 09:08:59;;;;;;;14.20;10.15;;;;;;;21.45;75.35;98789.84;1366869;84;81120;-73
2022/07/27 09:11:02;;;;;;;17.42;11.03;;;;;;;21.48;74.98;98794.90;1373562;83;21008;-73
2022/07/27 09:13:24;;;;;;;19.02;10.78;;;;;;;21.49;75.09;98792.57;1370648;83;21054;-74
2022/07/27 09:15:26;;;;;;;16.73;11.28;;;;;;;21.51;74.93;98793.25;1368563;84;81164;-73
2022/07/27 09:17:27;;;;;;;25.48;10.30;;;;;;;21.52;74.83;98794.98;1373004;83;21041;-73
2022/07/27 09:19:28;;;;;;;20.75;10.28;;;;;;;21.54;74.69;98793.48;1368498;84;81152;-73
2022/07/27 09:21:30;;;;;;;22.67;11.95;;;;;;;21.54;74.69;98793.48;1370201;83;20989;-74
2022/07/27 09:23:31;;;;;;;26.40;11.05;;;;;;;21.56;74.57;98799.05;1369488;83;21673;-74
2022/07/27 09:25:34;;;;;;;13.58;10.82;;;;;;;21.62;74.76;98795.44;1365886;83;81192;-74
2022/07/27 09:27:35;;;;;;;22.50;11.18;;;;;;;21.67;74.53;98790.45;1367577;84;21045;-73
2022/07/27 09:29:36;;;;;;;19.92;10.93;;;;;;;21.60;74.23;98789.72;1366481;83;82765;-74
2022/07/27 09:31:45;;;;;;;37.45;11.22;;;;;;;21.59;74.09;98779.98;1369185;83;21681;-73